Latest Weather Observations for Amberley

IDQ60801

Issued at 10:05 pm EST Wednesday 22 October 2014 (issued every 30 minutes, with the page automatically refreshed every 10 minutes)

About weather observations | Map of weather stations | Latest weather observations for QLD | Other Formats
Station Details ID: 040004 Name: AMBERLEY AMO Lat: -27.63 Lon: 152.71 Height: 24.2 m
Data from the previous 72 hours. | See also: Recent months at Amberley
Date/Time
EST
Temp
°C
App
Temp
°C
Dew
Point
Rel
Hum
%
Delta-T
°C
Wind Press
QNH
hPa
Press
MSL
hPa
Rain
since 9 am
mm
Dir
 
Spd
km/h
Gust
km/h
Spd
kts
Gust
kts
22/10:00pm 14.3 14.4 10.3 77 2.1 ENE 0 0 0 0 1023.5 - 0.0
22/09:30pm 15.5 15.8 10.8 73 2.5 ENE 0 0 0 0 1023.4 - 0.0
22/09:00pm 17.7 16.8 11.2 65 3.5 ENE 7 9 4 5 1023.4 1023.4 0.0
22/08:30pm 18.2 16.6 11.4 64 3.7 ENE 11 15 6 8 1023.2 - 0.0
22/08:00pm 18.7 15.8 11.1 61 4.1 ENE 17 24 9 13 1023.1 - 0.0
22/07:30pm 19.1 15.6 11.0 59 4.4 ENE 20 30 11 16 1022.8 - 0.0
22/07:00pm 19.6 16.1 10.9 57 4.7 ENE 20 28 11 15 1022.6 - 0.0
22/06:30pm 20.0 16.1 10.8 55 5.0 ENE 22 32 12 17 1022.5 - 0.0
22/06:00pm 20.8 16.3 10.2 50 5.7 ENE 24 37 13 20 1022.2 1022.2 0.0
22/05:30pm 21.7 17.2 10.0 47 6.3 ENE 24 33 13 18 1022.0 - 0.0
22/05:00pm 22.6 17.4 10.1 45 6.8 ENE 28 35 15 19 1021.6 - 0.0
22/04:30pm 23.5 18.6 9.9 42 7.4 ENE 26 32 14 17 1021.4 - 0.0
22/04:00pm 24.4 20.3 10.0 40 7.9 ENE 22 30 12 16 1021.3 - 0.0
22/03:30pm 23.4 17.6 9.5 41 7.5 E 30 35 16 19 1021.2 - 0.0
22/03:00pm 24.7 19.5 8.9 36 8.5 ENE 26 32 14 17 1021.2 1021.2 0.0
22/02:30pm 25.1 21.2 8.8 35 8.8 ENE 19 28 10 15 1021.3 - 0.0
22/02:00pm 24.6 21.4 8.5 36 8.6 E 15 20 8 11 1021.6 - 0.0
22/01:30pm 25.0 20.7 7.8 33 9.1 NE 20 26 11 14 1022.0 - 0.0
22/01:00pm 25.3 20.6 7.7 32 9.3 E 22 28 12 15 1022.2 - 0.0
22/12:30pm 24.3 21.3 7.8 34 8.7 SSE 13 28 7 15 1022.7 - 0.0
22/12:00pm 24.6 22.4 7.7 34 8.9 ESE 9 22 5 12 1023.3 1023.3 0.0
22/11:30am 23.8 20.8 7.8 36 8.4 SE 13 26 7 14 1023.8 - 0.0
22/11:00am 23.9 20.8 7.4 34 8.6 SE 13 19 7 10 1024.3 - 0.0
22/10:30am 23.1 19.4 8.1 38 7.9 SE 17 26 9 14 1024.8 - 0.0
22/10:00am 23.0 19.9 8.7 40 7.6 SSE 15 20 8 11 1025.3 - 0.0
22/09:30am 23.4 19.0 9.0 40 7.7 ESE 22 30 12 16 1025.6 - 0.0
22/09:00am 23.3 19.4 9.6 41 7.4 ESE 20 30 11 16 1025.7 1025.6 0.0
22/08:30am 22.2 17.6 9.5 44 6.8 ESE 24 32 13 17 1025.7 - 0.0
22/08:00am 22.0 19.1 10.9 49 6.1 S 17 22 9 12 1025.8 - 0.0
22/07:30am 20.1 17.7 11.3 57 4.8 S 15 24 8 13 1025.9 - 0.0
22/07:00am 18.5 16.5 11.5 63 3.8 S 13 17 7 9 1025.6 - 0.0
22/06:30am 17.2 16.0 11.5 69 3.1 SSW 9 13 5 7 1025.6 - 0.0
22/06:00am 16.1 14.1 11.4 73 2.5 SSW 13 15 7 8 1025.4 1025.3 0.0
22/05:30am 13.8 12.5 11.1 84 1.4 SSW 9 11 5 6 1025.1 - 0.0
22/05:00am 13.2 11.7 10.5 84 1.4 S 9 9 5 5 1025.0 - 0.0
22/04:30am 14.6 13.6 11.0 79 1.9 S 7 9 4 5 1024.8 - 0.0
22/04:00am 15.8 14.5 11.1 73 2.5 SSW 9 11 5 6 1024.8 - 0.0
22/03:30am 14.9 15.4 11.5 80 1.8 CALM 0 0 0 0 1025.0 - 0.0
22/03:00am 14.3 13.4 11.3 82 1.6 SSE 7 9 4 5 1025.0 1024.9 0.0
22/02:30am 14.5 12.8 11.1 80 1.8 S 11 13 6 7 1025.0 - 0.0
22/02:00am 13.4 13.6 10.7 84 1.4 CALM 0 2 0 1 1025.5 - 0.0
22/01:30am 12.1 11.6 10.9 92 0.6 SSW 4 9 2 5 1025.8 - 0.0
22/01:00am 11.7 9.6 9.9 89 0.9 SSW 11 13 6 7 1026.1 - 0.0
22/12:30am 13.4 13.5 10.1 80 1.7 CALM 0 0 0 0 1026.7 - 0.0
22/12:00am 14.2 14.4 10.6 79 1.9 S 0 0 0 0 1027.0 1026.9 0.0
 
Date/Time
EST
Temp
°C
App
Temp
°C
Dew
Point
Rel
Hum
%
Delta-T
°C
Wind Press
QNH
hPa
Press
MSL
hPa
Rain
since 9 am
mm
Dir
 
Spd
km/h
Gust
km/h
Spd
kts
Gust
kts
21/11:30pm 15.2 14.3 11.3 77 2.1 SSE 7 9 4 5 1027.4 - 0.0
21/11:00pm 15.3 14.2 10.7 74 2.4 SSE 7 7 4 4 1027.6 - 0.0
21/10:30pm 15.5 14.1 11.0 74 2.4 ESE 9 11 5 6 1027.8 - 0.0
21/10:00pm 17.0 15.6 11.0 68 3.2 E 9 13 5 7 1027.8 - 0.0
21/09:30pm 17.7 16.3 11.0 65 3.6 ESE 9 11 5 6 1027.9 - 0.0
21/09:00pm 18.3 17.3 10.9 62 4.0 E 7 11 4 6 1027.7 1027.6 0.0
21/08:30pm 18.5 16.7 10.9 61 4.1 ESE 11 17 6 9 1027.4 - 0.0
21/08:00pm 19.4 16.9 10.9 58 4.6 SE 15 20 8 11 1027.1 - 0.0
21/07:30pm 20.0 17.5 11.2 57 4.8 ESE 15 24 8 13 1026.8 - 0.0
21/07:00pm 20.4 17.3 11.7 57 4.8 ESE 19 30 10 16 1026.3 - 0.0
21/06:30pm 21.6 18.2 11.3 52 5.7 SE 20 28 11 15 1025.8 - 0.0
21/06:00pm 21.8 19.1 11.7 52 5.6 ESE 17 24 9 13 1025.4 1025.3 0.0
21/05:30pm 22.7 19.3 11.4 49 6.3 ESE 20 28 11 15 1025.1 - 0.0
21/05:00pm 23.2 19.5 11.4 47 6.6 E 22 32 12 17 1024.8 - 0.0
21/04:30pm 23.4 18.5 11.2 46 6.8 SSE 28 33 15 18 1024.5 - 0.0
21/04:00pm 23.8 18.6 11.7 46 6.8 ESE 30 37 16 20 1024.1 - 0.0
21/03:30pm 24.5 20.0 11.5 44 7.3 SE 26 33 14 18 1023.9 - 0.0
21/03:00pm 25.2 20.2 11.1 41 7.9 SE 28 41 15 22 1023.8 1023.8 0.0
21/02:30pm 26.6 23.1 10.2 35 9.2 ESE 19 30 10 16 1023.7 - 0.0
21/02:00pm 26.1 22.6 10.2 36 8.9 SSE 19 30 10 16 1024.0 - 0.0
21/01:30pm 25.5 23.0 11.1 40 8.1 ESE 15 24 8 13 1024.5 - 0.0
21/01:00pm 25.7 22.3 11.3 40 8.2 SSE 20 30 11 16 1024.9 - 0.0
21/12:30pm 25.2 21.4 11.1 41 7.9 SSE 22 33 12 18 1025.4 - 0.0
21/12:00pm 24.5 21.4 11.7 44 7.2 SE 19 28 10 15 1025.8 1025.7 0.0
21/11:30am 24.3 21.3 12.1 46 7.0 ESE 19 26 10 14 1026.2 - 0.0
21/11:00am 24.0 20.2 12.4 48 6.6 SSE 24 32 13 17 1026.5 - 0.0
21/10:30am 24.0 21.0 12.4 48 6.6 ESE 20 30 11 16 1026.6 - 0.0
21/10:00am 23.8 21.4 12.6 49 6.4 SSE 17 26 9 14 1026.7 - 0.0
21/09:30am 23.1 20.2 12.3 50 6.1 ESE 19 28 10 15 1027.0 - 0.0
21/09:00am 23.8 21.1 12.8 50 6.3 SSE 19 26 10 14 1027.0 1026.9 0.0
21/08:30am 22.0 20.3 13.5 58 4.9 SSE 15 26 8 14 1027.3 - 0.0
21/08:00am 21.3 19.7 13.8 62 4.3 S 15 19 8 10 1027.2 - 0.0
21/07:30am 20.5 19.7 14.1 66 3.7 SSE 11 15 6 8 1026.9 - 0.0
21/07:00am 19.1 20.4 14.2 73 2.8 CALM 0 0 0 0 1026.7 - 0.0
21/06:30am 18.4 19.8 14.4 77 2.3 CALM 0 0 0 0 1026.3 - 0.0
21/06:00am 17.7 18.9 13.8 78 2.2 CALM 0 0 0 0 1026.1 1026.0 0.0
21/05:30am 16.7 17.8 13.5 81 1.8 CALM 0 0 0 0 1025.8 - 0.0
21/05:00am 16.3 17.4 13.4 83 1.6 CALM 0 0 0 0 1025.5 - 0.0
21/04:30am 15.8 16.8 13.3 85 1.4 CALM 0 0 0 0 1025.2 - 0.0
21/04:00am 15.5 15.1 13.0 85 1.4 SSW 7 9 4 5 1025.1 - 0.0
21/03:30am 15.6 16.6 13.1 85 1.4 CALM 0 0 0 0 1025.1 - 0.0
21/03:00am 15.6 16.1 12.7 83 1.6 SSW 2 9 1 5 1025.3 1025.2 0.0
21/02:30am 15.3 14.7 12.4 83 1.6 S 7 11 4 6 1025.4 - 0.0
21/02:00am 15.1 14.0 11.9 81 1.7 S 9 11 5 6 1025.4 - 0.0
21/01:30am 14.9 14.2 12.1 83 1.5 S 7 7 4 4 1025.6 - 0.0
21/01:00am 14.9 15.2 12.1 83 1.5 ENE 2 7 1 4 1025.7 - 0.0
21/12:30am 14.8 13.7 11.8 82 1.6 ENE 9 11 5 6 1026.1 - 0.0
21/12:00am 15.3 16.1 12.4 83 1.6 CALM 0 0 0 0 1026.4 1026.3 0.0
 
Date/Time
EST
Temp
°C
App
Temp
°C
Dew
Point
Rel
Hum
%
Delta-T
°C
Wind Press
QNH
hPa
Press
MSL
hPa
Rain
since 9 am
mm
Dir
 
Spd
km/h
Gust
km/h
Spd
kts
Gust
kts
20/11:30pm 16.4 15.4 12.4 77 2.2 E 9 11 5 6 1026.5 - 0.0
20/11:00pm 16.7 15.5 12.9 78 2.1 E 11 11 6 6 1026.7 - 0.0
20/10:30pm 17.4 16.1 12.5 73 2.7 ENE 11 13 6 7 1026.8 - 0.0
20/10:00pm 17.7 16.4 12.6 72 2.8 E 11 13 6 7 1026.7 - 0.0
20/09:30pm 17.7 16.0 12.4 71 2.9 E 13 15 7 8 1026.8 - 0.0
20/09:00pm 18.6 16.9 12.3 67 3.5 ESE 13 17 7 9 1026.7 1026.6 0.0
20/08:30pm 19.8 17.2 12.0 60 4.3 E 17 24 9 13 1026.4 - 0.0
20/08:00pm 20.5 16.8 11.6 56 4.9 E 22 30 12 16 1025.8 - 0.0
20/07:30pm 21.0 17.8 12.0 56 5.0 E 20 30 11 16 1025.2 - 0.0
20/07:00pm 21.7 17.3 11.8 53 5.5 ENE 26 33 14 18 1024.1 - 0.0
20/06:30pm 22.0 18.8 11.8 52 5.7 ENE 20 32 11 17 1023.5 - 0.0
20/06:00pm 22.8 18.6 11.1 47 6.5 ENE 24 32 13 17 1022.8 1022.8 0.0
20/05:30pm 23.9 19.4 11.4 45 7.0 ENE 26 33 14 18 1022.2 - 0.0
20/05:00pm 24.9 19.4 10.7 40 7.9 ENE 30 37 16 20 1021.6 - 0.0
20/04:30pm 25.6 20.8 10.3 38 8.5 ENE 26 37 14 20 1021.1 - 0.0
20/04:00pm 26.6 20.9 9.8 34 9.3 ENE 30 39 16 21 1020.8 - 0.0
20/03:30pm 27.6 22.2 9.5 32 10.0 ENE 28 35 15 19 1020.4 - 0.0
20/03:00pm 28.4 23.3 9.2 30 10.6 ENE 26 33 14 18 1020.2 1020.1 0.0
20/02:30pm 28.5 25.5 9.1 29 10.7 ENE 15 28 8 15 1020.3 - 0.0
20/02:00pm 29.1 24.6 8.5 27 11.3 ENE 22 32 12 17 1020.5 - 0.0
20/01:30pm 28.0 26.4 8.8 30 10.5 NNW 7 13 4 7 1021.0 - 0.0
20/01:00pm 27.8 25.9 9.0 30 10.3 SSW 9 15 5 8 1021.6 - 0.0
20/12:30pm 27.8 25.2 9.3 31 10.2 ENE 13 19 7 10 1022.1 - 0.0
20/12:00pm 26.7 24.6 9.7 34 9.4 ESE 11 19 6 10 1022.7 1022.7 0.0
20/11:30am 25.9 24.0 9.2 34 9.1 S 9 17 5 9 1023.2 - 0.0
20/11:00am 25.1 23.0 9.8 38 8.4 SE 11 19 6 10 1023.9 - 0.0
20/10:30am 24.6 23.1 10.7 41 7.7 E 9 15 5 8 1024.5 - 0.0
20/10:00am 23.2 21.7 10.7 45 6.9 WSW 9 13 5 7 1025.0 - 0.0
20/09:30am 22.8 21.4 11.0 47 6.6 SW 9 13 5 7 1025.4 - 0.0
20/09:00am 22.3 21.0 11.1 49 6.2 NE 9 13 5 7 1025.6 1025.5 0.0
20/08:30am 21.5 20.7 11.6 53 5.5 E 7 13 4 7 1025.8 - 0.0
20/08:00am 19.5 19.1 11.2 58 4.5 SW 4 7 2 4 1025.8 - 0.0
20/07:30am 17.7 16.9 11.0 65 3.6 SW 6 9 3 5 1025.8 - 0.0
20/07:00am 16.4 16.8 11.2 71 2.8 CALM 0 0 0 0 1025.8 - 0.0
20/06:30am 13.7 14.0 10.8 83 1.5 CALM 0 0 0 0 1025.6 - 0.0
20/06:00am 11.4 11.5 10.2 92 0.6 CALM 0 0 0 0 1025.2 1025.1 0.0
20/05:30am 9.8 9.6 9.0 95 0.4 CALM 0 0 0 0 1025.1 - 0.0
20/05:00am 9.7 9.5 8.9 95 0.4 CALM 0 0 0 0 1025.0 - 0.0
20/04:30am 10.5 10.4 9.5 93 0.5 CALM 0 0 0 0 1024.8 - 0.0
20/04:00am 11.0 11.0 9.8 92 0.6 CALM 0 0 0 0 1024.6 - 0.0
20/03:30am 11.1 11.1 9.7 91 0.7 CALM 0 0 0 0 1024.7 - 0.0
20/03:00am 10.4 10.2 9.2 92 0.6 CALM 0 0 0 0 1024.7 1024.6 0.0
20/02:30am 11.5 11.5 9.9 90 0.8 CALM 0 0 0 0 1024.7 - 0.0
20/02:00am 11.4 11.5 10.0 91 0.7 CALM 0 0 0 0 1025.0 - 0.0
20/01:30am 11.3 11.3 9.7 90 0.8 CALM 0 0 0 0 1025.2 - 0.0
20/01:00am 12.3 12.5 10.4 88 1.0 CALM 0 0 0 0 1025.5 - 0.0
20/12:30am 13.2 13.4 10.5 84 1.4 CALM 0 0 0 0 1025.9 - 0.0
20/12:00am 13.2 13.4 10.5 84 1.4 CALM 0 0 0 0 1026.1 1026.0 0.0
 
Date/Time
EST
Temp
°C
App
Temp
°C
Dew
Point
Rel
Hum
%
Delta-T
°C
Wind Press
QNH
hPa
Press
MSL
hPa
Rain
since 9 am
mm
Dir
 
Spd
km/h
Gust
km/h
Spd
kts
Gust
kts
19/11:30pm 13.7 13.9 10.6 81 1.6 CALM 0 0 0 0 1026.5 - 0.0
19/11:00pm 14.1 13.4 10.2 77 2.0 SW 4 9 2 5 1026.6 - 0.0
19/10:30pm 14.3 13.0 10.0 75 2.2 SSW 7 9 4 5 1026.7 - 0.0

Other Formats:

Comma delimited format used in spreadsheet applications
http://www.bom.gov.au/fwo/IDQ60801/IDQ60801.94568.axf

JavaScript Object Notation format (JSON) in row-major order
http://www.bom.gov.au/fwo/IDQ60801/IDQ60801.94568.json